sensor_id;sensor_type;location;lat;lon;timestamp;pressure;altitude;pressure_sealevel;temperature;humidity
68654;BME280;55636;51.108;13.622;2023-02-18T00:00:18;100552.78;;;9.06;59.12
68654;BME280;55636;51.108;13.622;2023-02-18T00:01:21;100548.94;;;9.07;59.14
68654;BME280;55636;51.108;13.622;2023-02-18T00:02:24;100548.09;;;9.07;59.09
68654;BME280;55636;51.108;13.622;2023-02-18T00:03:28;100557.47;;;9.06;59.09
68654;BME280;55636;51.108;13.622;2023-02-18T00:04:31;100558.03;;;9.08;59.07
68654;BME280;55636;51.108;13.622;2023-02-18T00:05:33;100565.22;;;9.09;59.04
68654;BME280;55636;51.108;13.622;2023-02-18T00:06:35;100559.97;;;9.07;59.04
68654;BME280;55636;51.108;13.622;2023-02-18T00:07:39;100559.97;;;9.07;58.92
68654;BME280;55636;51.108;13.622;2023-02-18T00:08:43;100556.59;;;9.05;59.09
68654;BME280;55636;51.108;13.622;2023-02-18T00:09:45;100553.84;;;9.05;59.24
68654;BME280;55636;51.108;13.622;2023-02-18T00:10:48;100554.44;;;9.07;59.05
68654;BME280;55636;51.108;13.622;2023-02-18T00:11:51;100550.75;;;9.01;59.09
68654;BME280;55636;51.108;13.622;2023-02-18T00:12:53;100550.50;;;9.03;59.16
68654;BME280;55636;51.108;13.622;2023-02-18T00:13:58;100552.16;;;9.04;58.96
68654;BME280;55636;51.108;13.622;2023-02-18T00:15:00;100547.75;;;9.03;59.06
68654;BME280;55636;51.108;13.622;2023-02-18T00:16:06;100552.16;;;9.04;58.93
68654;BME280;55636;51.108;13.622;2023-02-18T00:17:09;100560.44;;;9.04;59.13
68654;BME280;55636;51.108;13.622;2023-02-18T00:18:13;100554.09;;;9.03;58.90
68654;BME280;55636;51.108;13.622;2023-02-18T00:19:18;100551.84;;;9.00;58.90
68654;BME280;55636;51.108;13.622;2023-02-18T00:20:21;100552.06;;;8.99;58.80
68654;BME280;55636;51.108;13.622;2023-02-18T00:21:23;100549.91;;;9.01;58.69
68654;BME280;55636;51.108;13.622;2023-02-18T00:22:26;100556.25;;;9.01;58.78
68654;BME280;55636;51.108;13.622;2023-02-18T00:23:28;100551.84;;;9.00;58.52
68654;BME280;55636;51.108;13.622;2023-02-18T00:24:31;100547.16;;;9.01;58.60
68654;BME280;55636;51.108;13.622;2023-02-18T00:25:33;100551.84;;;9.00;58.35
68654;BME280;55636;51.108;13.622;2023-02-18T00:26:35;100552.06;;;8.99;58.58
68654;BME280;55636;51.108;13.622;2023-02-18T00:27:38;100549.31;;;8.99;58.41
68654;BME280;55636;51.108;13.622;2023-02-18T00:28:41;100548.47;;;8.98;58.46
68654;BME280;55636;51.108;13.622;2023-02-18T00:29:45;100542.41;;;8.96;58.33
68654;BME280;55636;51.108;13.622;2023-02-18T00:30:47;100547.91;;;8.96;58.42
68654;BME280;55636;51.108;13.622;2023-02-18T00:31:50;100554.50;;;8.95;58.41
68654;BME280;55636;51.108;13.622;2023-02-18T00:32:54;100558.94;;;8.96;58.26
68654;BME280;55636;51.108;13.622;2023-02-18T00:33:59;100556.19;;;8.96;58.25
68654;BME280;55636;51.108;13.622;2023-02-18T00:35:02;100555.56;;;8.94;58.12
68654;BME280;55636;51.108;13.622;2023-02-18T00:36:11;100553.63;;;8.95;58.15
68654;BME280;55636;51.108;13.622;2023-02-18T00:37:14;100550.88;;;8.95;58.21
68654;BME280;55636;51.108;13.622;2023-02-18T00:38:16;100556.66;;;8.93;58.25
68654;BME280;55636;51.108;13.622;2023-02-18T00:39:18;100565.75;;;8.94;58.12
68654;BME280;55636;51.108;13.622;2023-02-18T00:40:21;100560.25;;;8.94;58.28
68654;BME280;55636;51.108;13.622;2023-02-18T00:41:24;100559.41;;;8.93;58.17
68654;BME280;55636;51.108;13.622;2023-02-18T00:42:27;100559.41;;;8.93;58.14
68654;BME280;55636;51.108;13.622;2023-02-18T00:43:31;100559.41;;;8.93;58.06
68654;BME280;55636;51.108;13.622;2023-02-18T00:44:33;100572.09;;;8.94;58.02
68654;BME280;55636;51.108;13.622;2023-02-18T00:45:35;100566.59;;;8.94;58.04
68654;BME280;55636;51.108;13.622;2023-02-18T00:46:38;100564.34;;;8.91;58.10
68654;BME280;55636;51.108;13.622;2023-02-18T00:47:41;100562.41;;;8.92;57.99
68654;BME280;55636;51.108;13.622;2023-02-18T00:48:45;100570.41;;;8.93;58.14
68654;BME280;55636;51.108;13.622;2023-02-18T00:49:47;100567.91;;;8.92;58.21
68654;BME280;55636;51.108;13.622;2023-02-18T00:50:50;100566.25;;;8.91;58.08
68654;BME280;55636;51.108;13.622;2023-02-18T00:51:53;100566.25;;;8.91;58.29
68654;BME280;55636;51.108;13.622;2023-02-18T00:52:56;100567.91;;;8.92;58.30
68654;BME280;55636;51.108;13.622;2023-02-18T00:53:58;100573.19;;;8.93;58.28
68654;BME280;55636;51.108;13.622;2023-02-18T00:55:01;100571.75;;;8.91;58.20
68654;BME280;55636;51.108;13.622;2023-02-18T00:56:03;100578.94;;;8.92;58.28
68654;BME280;55636;51.108;13.622;2023-02-18T00:57:06;100574.25;;;8.92;58.15
68654;BME280;55636;51.108;13.622;2023-02-18T00:58:09;100573.44;;;8.92;58.18
68654;BME280;55636;51.108;13.622;2023-02-18T00:59:11;100570.06;;;8.90;58.29
68654;BME280;55636;51.108;13.622;2023-02-18T01:00:13;100570.91;;;8.90;58.15
68654;BME280;55636;51.108;13.622;2023-02-18T01:01:17;100573.69;;;8.90;58.43
68654;BME280;55636;51.108;13.622;2023-02-18T01:02:19;100571.16;;;8.88;58.39
68654;BME280;55636;51.108;13.622;2023-02-18T01:03:22;100573.06;;;8.88;58.24
68654;BME280;55636;51.108;13.622;2023-02-18T01:04:25;100573.94;;;8.88;58.31
68654;BME280;55636;51.108;13.622;2023-02-18T01:05:29;100565.06;;;8.86;58.23
68654;BME280;55636;51.108;13.622;2023-02-18T01:06:31;100573.31;;;8.86;58.20
68654;BME280;55636;51.108;13.622;2023-02-18T01:07:36;100571.38;;;8.87;58.14
68654;BME280;55636;51.108;13.622;2023-02-18T01:08:40;100576.06;;;8.86;58.11
68654;BME280;55636;51.108;13.622;2023-02-18T01:09:43;100574.16;;;8.87;58.13
68654;BME280;55636;51.108;13.622;2023-02-18T01:10:47;100579.91;;;8.85;58.23
68654;BME280;55636;51.108;13.622;2023-02-18T01:11:49;100580.50;;;8.87;58.00
68654;BME280;55636;51.108;13.622;2023-02-18T01:12:51;100569.75;;;8.86;58.08
68654;BME280;55636;51.108;13.622;2023-02-18T01:13:53;100575.25;;;8.86;58.13
68654;BME280;55636;51.108;13.622;2023-02-18T01:14:55;100575.25;;;8.86;58.14
68654;BME280;55636;51.108;13.622;2023-02-18T01:15:58;100581.59;;;8.86;58.02
68654;BME280;55636;51.108;13.622;2023-02-18T01:17:00;100575.47;;;8.84;58.01
68654;BME280;55636;51.108;13.622;2023-02-18T01:18:02;100579.91;;;8.85;57.83
68654;BME280;55636;51.108;13.622;2023-02-18T01:19:07;100575.72;;;8.83;57.80
68654;BME280;55636;51.108;13.622;2023-02-18T01:20:10;100575.72;;;8.83;57.76
68654;BME280;55636;51.108;13.622;2023-02-18T01:21:13;100577.66;;;8.82;57.83
68654;BME280;55636;51.108;13.622;2023-02-18T01:22:16;100583.16;;;8.82;57.59
68654;BME280;55636;51.108;13.622;2023-02-18T01:23:19;100582.09;;;8.83;57.48
68654;BME280;55636;51.108;13.622;2023-02-18T01:24:22;100583.16;;;8.82;57.56
68654;BME280;55636;51.108;13.622;2023-02-18T01:25:26;100581.22;;;8.83;57.56
68654;BME280;55636;51.108;13.622;2023-02-18T01:26:30;100580.41;;;8.82;57.56
68654;BME280;55636;51.108;13.622;2023-02-18T01:27:32;100575.97;;;8.81;57.48
68654;BME280;55636;51.108;13.622;2023-02-18T01:28:35;100578.72;;;8.81;57.43
68654;BME280;55636;51.108;13.622;2023-02-18T01:29:40;100573.72;;;8.78;57.42
68654;BME280;55636;51.108;13.622;2023-02-18T01:30:43;100569.84;;;8.79;57.42
68654;BME280;55636;51.108;13.622;2023-02-18T01:31:46;100568.78;;;8.80;57.23
68654;BME280;55636;51.108;13.622;2023-02-18T01:32:49;100580.03;;;8.79;57.42
68654;BME280;55636;51.108;13.622;2023-02-18T01:33:51;100579.22;;;8.78;57.19
68654;BME280;55636;51.108;13.622;2023-02-18T01:34:54;100569.03;;;8.79;57.25
68654;BME280;55636;51.108;13.622;2023-02-18T01:35:56;100569.28;;;8.77;57.27
68654;BME280;55636;51.108;13.622;2023-02-18T01:36:59;100569.28;;;8.77;57.09
68654;BME280;55636;51.108;13.622;2023-02-18T01:38:01;100566.78;;;8.76;57.06
68654;BME280;55636;51.108;13.622;2023-02-18T01:39:04;100575.84;;;8.76;57.04
68654;BME280;55636;51.108;13.622;2023-02-18T01:40:09;100575.84;;;8.76;56.86
68654;BME280;55636;51.108;13.622;2023-02-18T01:41:12;100567.81;;;8.75;56.94
68654;BME280;55636;51.108;13.622;2023-02-18T01:42:20;100563.63;;;8.72;57.06
68654;BME280;55636;51.108;13.622;2023-02-18T01:43:24;100568.06;;;8.73;56.96
68654;BME280;55636;51.108;13.622;2023-02-18T01:44:27;100571.06;;;8.71;57.07
68654;BME280;55636;51.108;13.622;2023-02-18T01:46:35;100569.38;;;8.70;57.08
68654;BME280;55636;51.108;13.622;2023-02-18T01:47:37;100568.53;;;8.70;56.92
68654;BME280;55636;51.108;13.622;2023-02-18T01:48:46;100568.78;;;8.68;56.99
68654;BME280;55636;51.108;13.622;2023-02-18T01:49:52;100566.03;;;8.68;56.95
68654;BME280;55636;51.108;13.622;2023-02-18T01:52:22;100566.28;;;8.67;57.00
68654;BME280;55636;51.108;13.622;2023-02-18T01:53:46;100564.59;;;8.66;57.00
68654;BME280;55636;51.108;13.622;2023-02-18T01:54:54;100575.84;;;8.64;57.01
68654;BME280;55636;51.108;13.622;2023-02-18T01:56:00;100566.53;;;8.65;56.94
68654;BME280;55636;51.108;13.622;2023-02-18T01:57:15;100558.72;;;8.62;57.03
68654;BME280;55636;51.108;13.622;2023-02-18T01:58:20;100574.44;;;8.62;57.15
68654;BME280;55636;51.108;13.622;2023-02-18T01:59:30;100570.00;;;8.61;57.13
68654;BME280;55636;51.108;13.622;2023-02-18T02:00:33;100564.47;;;8.61;57.04
68654;BME280;55636;51.108;13.622;2023-02-18T02:01:38;100561.97;;;8.59;57.11
68654;BME280;55636;51.108;13.622;2023-02-18T02:02:45;100560.28;;;8.58;57.18
68654;BME280;55636;51.108;13.622;2023-02-18T02:03:47;100561.63;;;8.55;57.07
68654;BME280;55636;51.108;13.622;2023-02-18T02:04:50;100560.53;;;8.57;57.06
68654;BME280;55636;51.108;13.622;2023-02-18T02:05:53;100563.53;;;8.55;57.20
68654;BME280;55636;51.108;13.622;2023-02-18T02:06:55;100560.19;;;8.53;57.38
68654;BME280;55636;51.108;13.622;2023-02-18T02:07:59;100565.69;;;8.53;57.47
68654;BME280;55636;51.108;13.622;2023-02-18T02:09:05;100569.50;;;8.52;57.49
68654;BME280;55636;51.108;13.622;2023-02-18T02:10:10;100572.50;;;8.50;57.57
68654;BME280;55636;51.108;13.622;2023-02-18T02:11:23;100569.75;;;8.50;57.60
68654;BME280;55636;51.108;13.622;2023-02-18T02:13:47;100569.19;;;8.48;57.74
68654;BME280;55636;51.108;13.622;2023-02-18T02:15:10;100576.59;;;8.48;57.76
68654;BME280;55636;51.108;13.622;2023-02-18T02:16:27;100579.59;;;8.46;57.79
68654;BME280;55636;51.108;13.622;2023-02-18T02:18:59;100588.91;;;8.45;57.70
68654;BME280;55636;51.108;13.622;2023-02-18T02:20:43;100573.50;;;8.44;57.71
68654;BME280;55636;51.108;13.622;2023-02-18T02:22:16;100573.50;;;8.44;57.44
68654;BME280;55636;51.108;13.622;2023-02-18T02:24:46;100567.63;;;8.41;57.43
68654;BME280;55636;51.108;13.622;2023-02-18T02:26:09;100569.78;;;8.38;57.37
68654;BME280;55636;51.108;13.622;2023-02-18T02:27:38;100570.53;;;8.34;57.47
68654;BME280;55636;51.108;13.622;2023-02-18T02:30:43;100567.75;;;8.34;57.54
68654;BME280;55636;51.108;13.622;2023-02-18T02:32:10;100558.06;;;8.31;57.46
68654;BME280;55636;51.108;13.622;2023-02-18T02:34:42;100569.91;;;8.32;57.19
68654;BME280;55636;51.108;13.622;2023-02-18T02:38:39;100566.22;;;8.26;57.41
68654;BME280;55636;51.108;13.622;2023-02-18T02:39:51;100565.34;;;8.26;57.26
68654;BME280;55636;51.108;13.622;2023-02-18T02:43:56;100567.66;;;8.17;57.36
68654;BME280;55636;51.108;13.622;2023-02-18T02:45:09;100564.53;;;8.13;57.39
68654;BME280;55636;51.108;13.622;2023-02-18T02:46:27;100572.78;;;8.13;57.42
68654;BME280;55636;51.108;13.622;2023-02-18T02:47:48;100568.84;;;8.09;57.45
68654;BME280;55636;51.108;13.622;2023-02-18T02:49:18;100568.25;;;8.07;57.51
68654;BME280;55636;51.108;13.622;2023-02-18T02:50:46;100572.53;;;8.03;57.52
68654;BME280;55636;51.108;13.622;2023-02-18T02:52:17;100566.44;;;8.01;57.35
68654;BME280;55636;51.108;13.622;2023-02-18T02:53:25;100558.19;;;8.01;57.46
68654;BME280;55636;51.108;13.622;2023-02-18T02:54:28;100559.03;;;8.01;57.33
68654;BME280;55636;51.108;13.622;2023-02-18T02:55:31;100557.09;;;8.02;57.36
68654;BME280;55636;51.108;13.622;2023-02-18T02:56:33;100558.19;;;8.01;57.16
68654;BME280;55636;51.108;13.622;2023-02-18T02:58:57;100558.19;;;8.01;57.09
68654;BME280;55636;51.108;13.622;2023-02-18T03:00:05;100559.84;;;8.02;57.15
68654;BME280;55636;51.108;13.622;2023-02-18T03:05:43;100559.63;;;8.03;57.05
68654;BME280;55636;51.108;13.622;2023-02-18T03:08:38;100563.47;;;8.02;56.87
68654;BME280;55636;51.108;13.622;2023-02-18T03:11:01;100567.03;;;8.03;56.61
68654;BME280;55636;51.108;13.622;2023-02-18T03:12:11;100575.06;;;8.04;56.60
68654;BME280;55636;51.108;13.622;2023-02-18T03:14:08;100563.69;;;8.01;56.47
68654;BME280;55636;51.108;13.622;2023-02-18T03:15:27;100565.38;;;8.02;56.64
68654;BME280;55636;51.108;13.622;2023-02-18T03:16:49;100565.38;;;8.02;56.27
68654;BME280;55636;51.108;13.622;2023-02-18T03:18:04;100579.97;;;8.02;56.34
68654;BME280;55636;51.108;13.622;2023-02-18T03:19:24;100579.38;;;8.00;56.19
68654;BME280;55636;51.108;13.622;2023-02-18T03:20:35;100575.53;;;8.01;56.12
68654;BME280;55636;51.108;13.622;2023-02-18T03:21:48;100564.16;;;7.98;56.03
68654;BME280;55636;51.108;13.622;2023-02-18T03:22:54;100570.50;;;7.98;56.01
68654;BME280;55636;51.108;13.622;2023-02-18T03:24:06;100569.19;;;8.01;55.93
68654;BME280;55636;51.108;13.622;2023-02-18T03:25:10;100565.84;;;7.99;55.72
68654;BME280;55636;51.108;13.622;2023-02-18T03:26:15;100561.66;;;7.96;55.75
68654;BME280;55636;51.108;13.622;2023-02-18T03:29:02;100569.66;;;7.98;55.89
68654;BME280;55636;51.108;13.622;2023-02-18T03:30:08;100564.78;;;8.00;55.86
68654;BME280;55636;51.108;13.622;2023-02-18T03:31:15;100565.25;;;7.97;55.68
68654;BME280;55636;51.108;13.622;2023-02-18T03:32:22;100556.75;;;7.98;55.74
68654;BME280;55636;51.108;13.622;2023-02-18T03:33:34;100560.94;;;8.01;55.62
68654;BME280;55636;51.108;13.622;2023-02-18T03:34:42;100564.78;;;8.00;55.60
68654;BME280;55636;51.108;13.622;2023-02-18T03:35:48;100566.69;;;7.99;55.60
68654;BME280;55636;51.108;13.622;2023-02-18T03:36:52;100565.59;;;8.00;55.70
68654;BME280;55636;51.108;13.622;2023-02-18T03:38:02;100562.84;;;8.00;55.61
68654;BME280;55636;51.108;13.622;2023-02-18T03:39:28;100561.53;;;8.03;55.71
68654;BME280;55636;51.108;13.622;2023-02-18T03:40:31;100569.78;;;8.03;55.60
68654;BME280;55636;51.108;13.622;2023-02-18T03:41:35;100574.22;;;8.04;55.73
68654;BME280;55636;51.108;13.622;2023-02-18T03:42:38;100570.38;;;8.05;55.63
68654;BME280;55636;51.108;13.622;2023-02-18T03:43:48;100568.47;;;8.05;55.67
68654;BME280;55636;51.108;13.622;2023-02-18T03:44:51;100563.81;;;8.06;55.61
68654;BME280;55636;51.108;13.622;2023-02-18T03:45:54;100562.13;;;8.05;55.63
68654;BME280;55636;51.108;13.622;2023-02-18T03:46:59;100560.22;;;8.05;55.53
68654;BME280;55636;51.108;13.622;2023-02-18T03:48:02;100568.25;;;8.07;55.60
68654;BME280;55636;51.108;13.622;2023-02-18T03:49:04;100571.00;;;8.07;55.54
68654;BME280;55636;51.108;13.622;2023-02-18T03:50:07;100555.56;;;8.06;55.55
68654;BME280;55636;51.108;13.622;2023-02-18T03:51:10;100572.66;;;8.08;55.50
68654;BME280;55636;51.108;13.622;2023-02-18T03:52:12;100561.06;;;8.06;55.44
68654;BME280;55636;51.108;13.622;2023-02-18T03:53:14;100560.81;;;8.08;55.56
68654;BME280;55636;51.108;13.622;2023-02-18T03:54:18;100558.66;;;8.10;55.50
68654;BME280;55636;51.108;13.622;2023-02-18T03:55:21;100556.75;;;8.10;55.55
68654;BME280;55636;51.108;13.622;2023-02-18T03:56:24;100557.59;;;8.11;55.55
68654;BME280;55636;51.108;13.622;2023-02-18T03:57:26;100556.53;;;8.12;55.37
68654;BME280;55636;51.108;13.622;2023-02-18T03:58:28;100566.91;;;8.10;55.57
68654;BME280;55636;51.108;13.622;2023-02-18T03:59:30;100571.13;;;8.12;55.58
68654;BME280;55636;51.108;13.622;2023-02-18T04:00:33;100576.63;;;8.12;55.58
68654;BME280;55636;51.108;13.622;2023-02-18T04:01:35;100566.44;;;8.13;55.53
68654;BME280;55636;51.108;13.622;2023-02-18T04:02:38;100568.97;;;8.14;55.55
68654;BME280;55636;51.108;13.622;2023-02-18T04:03:41;100574.47;;;8.14;55.67
68654;BME280;55636;51.108;13.622;2023-02-18T04:04:43;100568.97;;;8.14;55.69
68654;BME280;55636;51.108;13.622;2023-02-18T04:05:45;100569.19;;;8.13;55.59
68654;BME280;55636;51.108;13.622;2023-02-18T04:06:49;100577.22;;;8.14;55.59
68654;BME280;55636;51.108;13.622;2023-02-18T04:07:51;100570.63;;;8.15;55.58
68654;BME280;55636;51.108;13.622;2023-02-18T04:08:54;100570.88;;;8.14;55.68
68654;BME280;55636;51.108;13.622;2023-02-18T04:09:56;100571.72;;;8.14;55.75
68654;BME280;55636;51.108;13.622;2023-02-18T04:10:58;100570.63;;;8.15;55.69
68654;BME280;55636;51.108;13.622;2023-02-18T04:12:00;100570.88;;;8.14;55.73
68654;BME280;55636;51.108;13.622;2023-02-18T04:13:03;100571.94;;;8.13;55.75
68654;BME280;55636;51.108;13.622;2023-02-18T04:14:06;100576.38;;;8.14;55.78
68654;BME280;55636;51.108;13.622;2023-02-18T04:15:09;100575.31;;;8.15;55.94
68654;BME280;55636;51.108;13.622;2023-02-18T04:16:11;100576.13;;;8.15;55.79
68654;BME280;55636;51.108;13.622;2023-02-18T04:17:13;100580.81;;;8.15;55.80
68654;BME280;55636;51.108;13.622;2023-02-18T04:18:16;100576.13;;;8.15;55.89
68654;BME280;55636;51.108;13.622;2023-02-18T04:19:18;100568.72;;;8.16;55.81
68654;BME280;55636;51.108;13.622;2023-02-18T04:20:20;100578.88;;;8.15;55.87
68654;BME280;55636;51.108;13.622;2023-02-18T04:21:24;100578.06;;;8.15;55.88
68654;BME280;55636;51.108;13.622;2023-02-18T04:22:26;100569.78;;;8.15;55.90
68654;BME280;55636;51.108;13.622;2023-02-18T04:23:29;100569.78;;;8.15;55.96
68654;BME280;55636;51.108;13.622;2023-02-18T04:24:31;100573.63;;;8.14;55.85
68654;BME280;55636;51.108;13.622;2023-02-18T04:25:34;100574.94;;;8.11;55.99
68654;BME280;55636;51.108;13.622;2023-02-18T04:26:37;100587.38;;;8.14;56.05
68654;BME280;55636;51.108;13.622;2023-02-18T04:27:40;100578.28;;;8.13;56.07
68654;BME280;55636;51.108;13.622;2023-02-18T04:28:43;100579.38;;;8.12;56.13
68654;BME280;55636;51.108;13.622;2023-02-18T04:29:45;100582.13;;;8.12;56.11
68654;BME280;55636;51.108;13.622;2023-02-18T04:30:47;100581.06;;;8.13;56.11
68654;BME280;55636;51.108;13.622;2023-02-18T04:31:50;100580.19;;;8.13;56.16
68654;BME280;55636;51.108;13.622;2023-02-18T04:32:52;100582.13;;;8.12;56.28
68654;BME280;55636;51.108;13.622;2023-02-18T04:33:55;100574.47;;;8.14;56.23
68654;BME280;55636;51.108;13.622;2023-02-18T04:34:57;100567.28;;;8.13;56.30
68654;BME280;55636;51.108;13.622;2023-02-18T04:35:59;100557.09;;;8.14;56.24
68654;BME280;55636;51.108;13.622;2023-02-18T04:37:01;100546.09;;;8.14;56.40
68654;BME280;55636;51.108;13.622;2023-02-18T04:38:04;100546.97;;;8.14;56.42
68654;BME280;55636;51.108;13.622;2023-02-18T04:39:06;100543.09;;;8.15;56.26
68654;BME280;55636;51.108;13.622;2023-02-18T04:40:09;100547.53;;;8.16;56.30
68654;BME280;55636;51.108;13.622;2023-02-18T04:41:11;100540.97;;;8.17;56.38
68654;BME280;55636;51.108;13.622;2023-02-18T04:42:14;100541.78;;;8.18;56.26
68654;BME280;55636;51.108;13.622;2023-02-18T04:43:16;100555.53;;;8.18;56.51
68654;BME280;55636;51.108;13.622;2023-02-18T04:44:18;100559.16;;;8.18;56.53
68654;BME280;55636;51.108;13.622;2023-02-18T04:45:20;100555.53;;;8.18;56.37
68654;BME280;55636;51.108;13.622;2023-02-18T04:46:23;100554.97;;;8.16;56.66
68654;BME280;55636;51.108;13.622;2023-02-18T04:47:25;100562.16;;;8.17;56.71
68654;BME280;55636;51.108;13.622;2023-02-18T04:48:28;100561.28;;;8.16;56.74
68654;BME280;55636;51.108;13.622;2023-02-18T04:49:30;100561.28;;;8.16;56.83
68654;BME280;55636;51.108;13.622;2023-02-18T04:50:32;100566.78;;;8.16;56.87
68654;BME280;55636;51.108;13.622;2023-02-18T04:51:35;100565.13;;;8.15;56.97
68654;BME280;55636;51.108;13.622;2023-02-18T04:52:39;100570.41;;;8.17;57.06
68654;BME280;55636;51.108;13.622;2023-02-18T04:53:42;100569.56;;;8.16;56.97
68654;BME280;55636;51.108;13.622;2023-02-18T04:54:45;100575.66;;;8.18;57.05
68654;BME280;55636;51.108;13.622;2023-02-18T04:55:51;100570.41;;;8.17;57.35
68654;BME280;55636;51.108;13.622;2023-02-18T04:56:53;100571.22;;;8.17;57.37
68654;BME280;55636;51.108;13.622;2023-02-18T04:57:55;100576.50;;;8.19;57.38
68654;BME280;55636;51.108;13.622;2023-02-18T04:58:58;100573.75;;;8.19;57.42
68654;BME280;55636;51.108;13.622;2023-02-18T05:00:00;100565.47;;;8.19;57.49
68654;BME280;55636;51.108;13.622;2023-02-18T05:01:04;100569.91;;;8.20;57.53
68654;BME280;55636;51.108;13.622;2023-02-18T05:02:07;100572.66;;;8.20;57.47
68654;BME280;55636;51.108;13.622;2023-02-18T05:03:09;100574.59;;;8.19;57.62
68654;BME280;55636;51.108;13.622;2023-02-18T05:04:11;100568.59;;;8.22;57.41
68654;BME280;55636;51.108;13.622;2023-02-18T05:05:14;100568.84;;;8.21;57.39
68654;BME280;55636;51.108;13.622;2023-02-18T05:06:16;100563.91;;;8.23;57.25
68654;BME280;55636;51.108;13.622;2023-02-18T05:07:21;100567.78;;;8.22;57.40
68654;BME280;55636;51.108;13.622;2023-02-18T05:08:23;100570.53;;;8.22;57.41
68654;BME280;55636;51.108;13.622;2023-02-18T05:09:27;100565.03;;;8.22;57.23
68654;BME280;55636;51.108;13.622;2023-02-18T05:10:29;100557.84;;;8.21;57.39
68654;BME280;55636;51.108;13.622;2023-02-18T05:11:33;100564.16;;;8.21;57.39
68654;BME280;55636;51.108;13.622;2023-02-18T05:12:35;100570.53;;;8.22;57.32
68654;BME280;55636;51.108;13.622;2023-02-18T05:13:37;100560.59;;;8.21;57.28
68654;BME280;55636;51.108;13.622;2023-02-18T05:14:40;100560.59;;;8.21;57.38
68654;BME280;55636;51.108;13.622;2023-02-18T05:15:42;100558.66;;;8.21;57.27
68654;BME280;55636;51.108;13.622;2023-02-18T05:16:44;100554.00;;;8.22;57.37
68654;BME280;55636;51.108;13.622;2023-02-18T05:17:47;100554.84;;;8.22;57.32
68654;BME280;55636;51.108;13.622;2023-02-18T05:18:49;100549.34;;;8.22;57.33
68654;BME280;55636;51.108;13.622;2023-02-18T05:19:52;100556.78;;;8.22;57.10
68654;BME280;55636;51.108;13.622;2023-02-18T05:20:54;100554.59;;;8.24;57.17
68654;BME280;55636;51.108;13.622;2023-02-18T05:21:56;100551.84;;;8.24;57.27
68654;BME280;55636;51.108;13.622;2023-02-18T05:22:58;100551.03;;;8.24;57.33
68654;BME280;55636;51.108;13.622;2023-02-18T05:24:01;100549.94;;;8.25;57.34
68654;BME280;55636;51.108;13.622;2023-02-18T05:25:03;100551.84;;;8.24;57.30
68654;BME280;55636;51.108;13.622;2023-02-18T05:26:05;100548.25;;;8.24;57.28
68654;BME280;55636;51.108;13.622;2023-02-18T05:27:08;100540.84;;;8.24;57.30
68654;BME280;55636;51.108;13.622;2023-02-18T05:28:10;100541.69;;;8.25;57.33
68654;BME280;55636;51.108;13.622;2023-02-18T05:29:14;100538.94;;;8.25;57.28
68654;BME280;55636;51.108;13.622;2023-02-18T05:30:16;100536.19;;;8.25;57.32
68654;BME280;55636;51.108;13.622;2023-02-18T05:31:19;100529.81;;;8.24;57.37
68654;BME280;55636;51.108;13.622;2023-02-18T05:32:22;100537.84;;;8.26;57.29
68654;BME280;55636;51.108;13.622;2023-02-18T05:33:24;100535.09;;;8.26;57.33
68654;BME280;55636;51.108;13.622;2023-02-18T05:34:26;100540.59;;;8.26;57.33
68654;BME280;55636;51.108;13.622;2023-02-18T05:35:28;100528.75;;;8.25;57.34
68654;BME280;55636;51.108;13.622;2023-02-18T05:36:31;100532.94;;;8.28;57.26
68654;BME280;55636;51.108;13.622;2023-02-18T05:37:33;100534.00;;;8.27;57.24
68654;BME280;55636;51.108;13.622;2023-02-18T05:38:36;100527.69;;;8.26;57.46
68654;BME280;55636;51.108;13.622;2023-02-18T05:39:39;100525.75;;;8.27;57.36
68654;BME280;55636;51.108;13.622;2023-02-18T05:40:42;100528.25;;;8.28;57.39
68654;BME280;55636;51.108;13.622;2023-02-18T05:41:44;100525.50;;;8.28;57.35
68654;BME280;55636;51.108;13.622;2023-02-18T05:42:47;100527.44;;;8.28;57.51
68654;BME280;55636;51.108;13.622;2023-02-18T05:43:49;100529.38;;;8.27;57.55
68654;BME280;55636;51.108;13.622;2023-02-18T05:45:12;100526.59;;;8.27;57.45
68654;BME280;55636;51.108;13.622;2023-02-18T05:46:14;100522.75;;;8.28;57.54
68654;BME280;55636;51.108;13.622;2023-02-18T05:47:16;100526.38;;;8.29;57.56
68654;BME280;55636;51.108;13.622;2023-02-18T05:48:19;100525.50;;;8.28;57.60
68654;BME280;55636;51.108;13.622;2023-02-18T05:49:21;100524.44;;;8.29;57.68
68654;BME280;55636;51.108;13.622;2023-02-18T05:50:23;100521.69;;;8.29;57.69
68654;BME280;55636;51.108;13.622;2023-02-18T05:51:26;100514.25;;;8.30;57.83
68654;BME280;55636;51.108;13.622;2023-02-18T05:52:28;100523.38;;;8.30;57.86
68654;BME280;55636;51.108;13.622;2023-02-18T05:53:30;100515.09;;;8.30;57.81
68654;BME280;55636;51.108;13.622;2023-02-18T05:54:36;100526.69;;;8.32;57.96
68654;BME280;55636;51.108;13.622;2023-02-18T05:55:38;100523.94;;;8.32;58.01
68654;BME280;55636;51.108;13.622;2023-02-18T05:56:40;100513.19;;;8.31;57.92
68654;BME280;55636;51.108;13.622;2023-02-18T05:57:43;100524.19;;;8.31;58.20
68654;BME280;55636;51.108;13.622;2023-02-18T05:58:45;100516.78;;;8.31;58.09
68654;BME280;55636;51.108;13.622;2023-02-18T05:59:48;100521.44;;;8.31;58.27
68654;BME280;55636;51.108;13.622;2023-02-18T06:00:50;100518.44;;;8.32;58.39
68654;BME280;55636;51.108;13.622;2023-02-18T06:01:53;100510.44;;;8.31;58.51
68654;BME280;55636;51.108;13.622;2023-02-18T06:02:56;100510.44;;;8.31;58.67
68654;BME280;55636;51.108;13.622;2023-02-18T06:03:58;100515.94;;;8.31;58.76
68654;BME280;55636;51.108;13.622;2023-02-18T06:05:01;100512.34;;;8.30;58.67
68654;BME280;55636;51.108;13.622;2023-02-18T06:06:04;100514.25;;;8.30;58.89